sensor_id;sensor_type;location;lat;lon;timestamp;temperature;humidity
33645;DHT22;19986;48.190;16.366;2023-05-02T00:02:06;17.70;99.90
33645;DHT22;19986;48.190;16.366;2023-05-02T00:04:32;17.70;99.90
33645;DHT22;19986;48.190;16.366;2023-05-02T00:06:58;17.80;99.90
33645;DHT22;19986;48.190;16.366;2023-05-02T00:09:24;17.80;99.90
33645;DHT22;19986;48.190;16.366;2023-05-02T00:11:50;17.90;99.90
33645;DHT22;19986;48.190;16.366;2023-05-02T00:14:16;17.90;99.90
33645;DHT22;19986;48.190;16.366;2023-05-02T00:16:42;17.90;99.90
33645;DHT22;19986;48.190;16.366;2023-05-02T00:19:08;17.90;99.90
33645;DHT22;19986;48.190;16.366;2023-05-02T00:21:33;17.90;99.90
33645;DHT22;19986;48.190;16.366;2023-05-02T00:23:59;17.90;99.90
33645;DHT22;19986;48.190;16.366;2023-05-02T00:26:25;17.80;99.90
33645;DHT22;19986;48.190;16.366;2023-05-02T00:28:52;17.80;99.90
33645;DHT22;19986;48.190;16.366;2023-05-02T00:31:17;17.80;99.90
33645;DHT22;19986;48.190;16.366;2023-05-02T00:33:43;17.70;99.90
33645;DHT22;19986;48.190;16.366;2023-05-02T00:36:13;17.70;99.90
33645;DHT22;19986;48.190;16.366;2023-05-02T00:38:40;17.70;99.90
33645;DHT22;19986;48.190;16.366;2023-05-02T00:41:05;17.70;99.90
33645;DHT22;19986;48.190;16.366;2023-05-02T00:43:31;17.70;99.90
33645;DHT22;19986;48.190;16.366;2023-05-02T00:45:57;17.60;99.90
33645;DHT22;19986;48.190;16.366;2023-05-02T00:48:24;17.60;99.90
33645;DHT22;19986;48.190;16.366;2023-05-02T00:50:51;17.60;99.90
33645;DHT22;19986;48.190;16.366;2023-05-02T00:53:17;17.50;99.90
33645;DHT22;19986;48.190;16.366;2023-05-02T00:55:43;17.50;99.90
33645;DHT22;19986;48.190;16.366;2023-05-02T00:58:13;17.50;99.90
33645;DHT22;19986;48.190;16.366;2023-05-02T01:03:19;17.40;99.90
33645;DHT22;19986;48.190;16.366;2023-05-02T01:06:03;17.40;99.90
33645;DHT22;19986;48.190;16.366;2023-05-02T01:08:58;17.40;99.90
33645;DHT22;19986;48.190;16.366;2023-05-02T01:11:47;17.30;99.90
33645;DHT22;19986;48.190;16.366;2023-05-02T01:14:14;17.30;99.90
33645;DHT22;19986;48.190;16.366;2023-05-02T01:16:42;17.30;99.90
33645;DHT22;19986;48.190;16.366;2023-05-02T01:19:24;17.30;99.90
33645;DHT22;19986;48.190;16.366;2023-05-02T01:21:51;17.30;99.90
33645;DHT22;19986;48.190;16.366;2023-05-02T01:24:24;17.30;99.90
33645;DHT22;19986;48.190;16.366;2023-05-02T01:27:06;17.30;99.90
33645;DHT22;19986;48.190;16.366;2023-05-02T01:29:33;17.30;99.90
33645;DHT22;19986;48.190;16.366;2023-05-02T01:32:02;17.30;99.90
33645;DHT22;19986;48.190;16.366;2023-05-02T01:34:29;17.30;99.90
33645;DHT22;19986;48.190;16.366;2023-05-02T01:36:57;17.30;99.90
33645;DHT22;19986;48.190;16.366;2023-05-02T01:39:24;17.30;99.90
33645;DHT22;19986;48.190;16.366;2023-05-02T01:41:54;17.30;99.90
33645;DHT22;19986;48.190;16.366;2023-05-02T01:44:22;17.40;99.90
33645;DHT22;19986;48.190;16.366;2023-05-02T01:46:50;17.30;99.90
33645;DHT22;19986;48.190;16.366;2023-05-02T01:49:18;17.30;99.90
33645;DHT22;19986;48.190;16.366;2023-05-02T01:51:47;17.30;99.90
33645;DHT22;19986;48.190;16.366;2023-05-02T01:54:16;17.30;99.90
33645;DHT22;19986;48.190;16.366;2023-05-02T01:56:43;17.30;99.90
33645;DHT22;19986;48.190;16.366;2023-05-02T01:59:16;17.30;99.90
33645;DHT22;19986;48.190;16.366;2023-05-02T02:01:43;17.30;99.90
33645;DHT22;19986;48.190;16.366;2023-05-02T02:04:11;17.20;99.90
33645;DHT22;19986;48.190;16.366;2023-05-02T02:06:38;17.20;99.90
33645;DHT22;19986;48.190;16.366;2023-05-02T02:09:05;17.20;99.90
33645;DHT22;19986;48.190;16.366;2023-05-02T02:11:44;17.10;99.90
33645;DHT22;19986;48.190;16.366;2023-05-02T02:14:17;17.20;99.90
33645;DHT22;19986;48.190;16.366;2023-05-02T02:16:44;17.30;99.90
33645;DHT22;19986;48.190;16.366;2023-05-02T02:19:13;17.30;99.90
33645;DHT22;19986;48.190;16.366;2023-05-02T02:21:45;17.30;99.90
33645;DHT22;19986;48.190;16.366;2023-05-02T02:24:12;17.30;99.90
33645;DHT22;19986;48.190;16.366;2023-05-02T02:26:40;17.30;99.90
33645;DHT22;19986;48.190;16.366;2023-05-02T02:29:07;17.20;99.90
33645;DHT22;19986;48.190;16.366;2023-05-02T02:31:34;17.20;99.90
33645;DHT22;19986;48.190;16.366;2023-05-02T02:34:01;17.20;99.90
33645;DHT22;19986;48.190;16.366;2023-05-02T02:39:21;17.30;99.90
33645;DHT22;19986;48.190;16.366;2023-05-02T02:53:17;17.30;99.90
33645;DHT22;19986;48.190;16.366;2023-05-02T02:55:47;17.30;99.90
33645;DHT22;19986;48.190;16.366;2023-05-02T02:58:35;17.30;99.90
33645;DHT22;19986;48.190;16.366;2023-05-02T03:01:05;17.30;99.90
33645;DHT22;19986;48.190;16.366;2023-05-02T03:03:33;17.20;99.90
33645;DHT22;19986;48.190;16.366;2023-05-02T03:06:00;17.20;99.90
33645;DHT22;19986;48.190;16.366;2023-05-02T03:08:38;17.20;99.90
33645;DHT22;19986;48.190;16.366;2023-05-02T03:11:04;17.20;99.90
33645;DHT22;19986;48.190;16.366;2023-05-02T03:13:30;17.10;99.90
33645;DHT22;19986;48.190;16.366;2023-05-02T03:16:11;17.10;99.90
33645;DHT22;19986;48.190;16.366;2023-05-02T03:18:47;17.10;99.90
33645;DHT22;19986;48.190;16.366;2023-05-02T03:21:13;17.10;99.90
33645;DHT22;19986;48.190;16.366;2023-05-02T03:23:40;17.10;99.90
33645;DHT22;19986;48.190;16.366;2023-05-02T03:26:06;17.20;99.90
33645;DHT22;19986;48.190;16.366;2023-05-02T03:28:32;17.20;99.90
33645;DHT22;19986;48.190;16.366;2023-05-02T03:30:58;17.10;99.90
33645;DHT22;19986;48.190;16.366;2023-05-02T03:33:23;17.00;99.90
33645;DHT22;19986;48.190;16.366;2023-05-02T03:35:50;17.00;99.90
33645;DHT22;19986;48.190;16.366;2023-05-02T03:38:15;17.00;99.90
33645;DHT22;19986;48.190;16.366;2023-05-02T03:40:41;17.00;99.90
33645;DHT22;19986;48.190;16.366;2023-05-02T03:43:07;17.00;99.90
33645;DHT22;19986;48.190;16.366;2023-05-02T03:45:33;17.00;99.90
33645;DHT22;19986;48.190;16.366;2023-05-02T03:47:59;16.90;99.90
33645;DHT22;19986;48.190;16.366;2023-05-02T03:50:25;16.90;99.90
33645;DHT22;19986;48.190;16.366;2023-05-02T03:52:51;17.00;99.90
33645;DHT22;19986;48.190;16.366;2023-05-02T03:55:17;16.90;99.90
33645;DHT22;19986;48.190;16.366;2023-05-02T03:57:43;16.90;99.90
33645;DHT22;19986;48.190;16.366;2023-05-02T04:00:09;16.90;99.90
33645;DHT22;19986;48.190;16.366;2023-05-02T04:02:35;16.90;99.90
33645;DHT22;19986;48.190;16.366;2023-05-02T04:05:01;16.80;99.90
33645;DHT22;19986;48.190;16.366;2023-05-02T04:07:28;16.80;99.90
33645;DHT22;19986;48.190;16.366;2023-05-02T04:09:54;16.90;99.90
33645;DHT22;19986;48.190;16.366;2023-05-02T04:12:20;17.00;99.90
33645;DHT22;19986;48.190;16.366;2023-05-02T04:14:46;17.10;99.90
33645;DHT22;19986;48.190;16.366;2023-05-02T04:17:12;17.10;99.90
33645;DHT22;19986;48.190;16.366;2023-05-02T04:19:40;17.10;99.90
33645;DHT22;19986;48.190;16.366;2023-05-02T04:22:06;17.10;99.90
33645;DHT22;19986;48.190;16.366;2023-05-02T04:24:31;17.20;99.90
33645;DHT22;19986;48.190;16.366;2023-05-02T04:26:57;17.20;99.90
33645;DHT22;19986;48.190;16.366;2023-05-02T04:29:23;17.20;99.90
33645;DHT22;19986;48.190;16.366;2023-05-02T04:31:50;17.30;99.90
33645;DHT22;19986;48.190;16.366;2023-05-02T04:34:16;17.30;99.90
33645;DHT22;19986;48.190;16.366;2023-05-02T04:36:44;17.30;99.90
33645;DHT22;19986;48.190;16.366;2023-05-02T04:39:11;17.40;99.90
33645;DHT22;19986;48.190;16.366;2023-05-02T04:41:37;17.40;99.90
33645;DHT22;19986;48.190;16.366;2023-05-02T04:44:03;17.40;99.90
33645;DHT22;19986;48.190;16.366;2023-05-02T04:46:29;17.30;99.90
33645;DHT22;19986;48.190;16.366;2023-05-02T04:48:55;17.30;99.90
33645;DHT22;19986;48.190;16.366;2023-05-02T04:51:20;17.30;99.90
33645;DHT22;19986;48.190;16.366;2023-05-02T04:53:46;17.20;99.90
33645;DHT22;19986;48.190;16.366;2023-05-02T04:56:12;17.30;99.90
33645;DHT22;19986;48.190;16.366;2023-05-02T04:58:38;17.30;99.90
33645;DHT22;19986;48.190;16.366;2023-05-02T05:01:04;17.30;99.90
33645;DHT22;19986;48.190;16.366;2023-05-02T05:03:30;17.30;99.90
33645;DHT22;19986;48.190;16.366;2023-05-02T05:05:58;17.40;99.90
33645;DHT22;19986;48.190;16.366;2023-05-02T05:08:23;17.40;99.90
33645;DHT22;19986;48.190;16.366;2023-05-02T05:10:49;17.50;99.90
33645;DHT22;19986;48.190;16.366;2023-05-02T05:13:15;17.60;99.90
33645;DHT22;19986;48.190;16.366;2023-05-02T05:15:41;17.70;99.90
33645;DHT22;19986;48.190;16.366;2023-05-02T05:18:09;17.90;99.90
33645;DHT22;19986;48.190;16.366;2023-05-02T05:20:34;18.10;99.90
33645;DHT22;19986;48.190;16.366;2023-05-02T05:23:00;18.30;99.90
33645;DHT22;19986;48.190;16.366;2023-05-02T05:25:27;18.30;99.90
33645;DHT22;19986;48.190;16.366;2023-05-02T05:27:54;18.40;99.90
33645;DHT22;19986;48.190;16.366;2023-05-02T05:30:21;18.50;99.90
33645;DHT22;19986;48.190;16.366;2023-05-02T05:32:46;18.60;99.90
33645;DHT22;19986;48.190;16.366;2023-05-02T05:35:12;18.60;99.90
33645;DHT22;19986;48.190;16.366;2023-05-02T05:37:38;18.70;99.90
33645;DHT22;19986;48.190;16.366;2023-05-02T05:40:07;18.70;99.90
33645;DHT22;19986;48.190;16.366;2023-05-02T05:42:34;18.70;99.90
33645;DHT22;19986;48.190;16.366;2023-05-02T05:44:59;18.70;99.90
33645;DHT22;19986;48.190;16.366;2023-05-02T05:47:25;18.70;99.90
33645;DHT22;19986;48.190;16.366;2023-05-02T05:49:52;18.70;99.90
33645;DHT22;19986;48.190;16.366;2023-05-02T05:52:18;18.70;99.90
33645;DHT22;19986;48.190;16.366;2023-05-02T05:54:44;18.90;99.90
33645;DHT22;19986;48.190;16.366;2023-05-02T05:57:10;19.10;99.90
33645;DHT22;19986;48.190;16.366;2023-05-02T05:59:36;19.20;99.90
33645;DHT22;19986;48.190;16.366;2023-05-02T06:02:02;19.20;99.90
33645;DHT22;19986;48.190;16.366;2023-05-02T06:04:28;19.30;99.90
33645;DHT22;19986;48.190;16.366;2023-05-02T06:06:54;19.30;99.90
33645;DHT22;19986;48.190;16.366;2023-05-02T06:09:20;19.20;99.90
33645;DHT22;19986;48.190;16.366;2023-05-02T06:11:46;19.30;99.90
33645;DHT22;19986;48.190;16.366;2023-05-02T06:14:12;19.30;99.90
33645;DHT22;19986;48.190;16.366;2023-05-02T06:16:38;19.50;99.90
33645;DHT22;19986;48.190;16.366;2023-05-02T06:19:04;19.60;99.90
33645;DHT22;19986;48.190;16.366;2023-05-02T06:21:30;19.80;99.90
33645;DHT22;19986;48.190;16.366;2023-05-02T06:23:56;19.90;99.90
33645;DHT22;19986;48.190;16.366;2023-05-02T06:26:21;20.00;99.90
33645;DHT22;19986;48.190;16.366;2023-05-02T06:28:47;20.10;99.90
33645;DHT22;19986;48.190;16.366;2023-05-02T06:31:13;20.10;99.90
33645;DHT22;19986;48.190;16.366;2023-05-02T06:33:39;20.10;99.90
33645;DHT22;19986;48.190;16.366;2023-05-02T06:36:05;20.10;99.90
33645;DHT22;19986;48.190;16.366;2023-05-02T06:38:30;20.10;99.90
33645;DHT22;19986;48.190;16.366;2023-05-02T06:40:56;20.20;99.90
33645;DHT22;19986;48.190;16.366;2023-05-02T06:43:22;20.30;99.90
33645;DHT22;19986;48.190;16.366;2023-05-02T06:45:51;20.20;99.90
33645;DHT22;19986;48.190;16.366;2023-05-02T06:48:18;20.30;99.90
33645;DHT22;19986;48.190;16.366;2023-05-02T06:50:44;20.40;99.90
33645;DHT22;19986;48.190;16.366;2023-05-02T06:53:10;20.30;99.90
33645;DHT22;19986;48.190;16.366;2023-05-02T06:55:36;20.30;99.90
33645;DHT22;19986;48.190;16.366;2023-05-02T06:58:02;20.30;99.90
33645;DHT22;19986;48.190;16.366;2023-05-02T07:00:27;20.30;99.90
33645;DHT22;19986;48.190;16.366;2023-05-02T07:02:53;20.40;99.90
33645;DHT22;19986;48.190;16.366;2023-05-02T07:05:19;20.60;99.90
33645;DHT22;19986;48.190;16.366;2023-05-02T07:07:45;20.70;99.90
33645;DHT22;19986;48.190;16.366;2023-05-02T07:10:11;20.80;99.90
33645;DHT22;19986;48.190;16.366;2023-05-02T07:12:37;20.80;99.90
33645;DHT22;19986;48.190;16.366;2023-05-02T07:15:07;20.70;99.90
33645;DHT22;19986;48.190;16.366;2023-05-02T07:17:33;20.80;99.90
33645;DHT22;19986;48.190;16.366;2023-05-02T07:19:59;20.80;99.90
33645;DHT22;19986;48.190;16.366;2023-05-02T07:22:25;21.00;99.90
33645;DHT22;19986;48.190;16.366;2023-05-02T07:24:59;21.00;99.90
33645;DHT22;19986;48.190;16.366;2023-05-02T07:27:25;21.10;99.90
33645;DHT22;19986;48.190;16.366;2023-05-02T07:29:52;21.20;99.90
33645;DHT22;19986;48.190;16.366;2023-05-02T07:32:19;21.20;99.90
33645;DHT22;19986;48.190;16.366;2023-05-02T07:34:46;21.20;99.90
33645;DHT22;19986;48.190;16.366;2023-05-02T07:37:12;21.30;99.90
33645;DHT22;19986;48.190;16.366;2023-05-02T07:39:38;21.20;99.90
33645;DHT22;19986;48.190;16.366;2023-05-02T07:42:04;21.20;99.90
33645;DHT22;19986;48.190;16.366;2023-05-02T07:44:31;21.40;99.90
33645;DHT22;19986;48.190;16.366;2023-05-02T07:46:59;21.40;99.90
33645;DHT22;19986;48.190;16.366;2023-05-02T07:49:25;21.50;99.90
33645;DHT22;19986;48.190;16.366;2023-05-02T07:51:51;21.50;99.70
33645;DHT22;19986;48.190;16.366;2023-05-02T07:54:20;21.40;99.70
33645;DHT22;19986;48.190;16.366;2023-05-02T07:56:46;21.40;99.90
33645;DHT22;19986;48.190;16.366;2023-05-02T07:59:14;21.40;99.90
33645;DHT22;19986;48.190;16.366;2023-05-02T08:01:40;21.50;99.70
33645;DHT22;19986;48.190;16.366;2023-05-02T08:04:06;21.50;99.50
33645;DHT22;19986;48.190;16.366;2023-05-02T08:06:33;21.30;99.40
33645;DHT22;19986;48.190;16.366;2023-05-02T08:09:00;21.30;99.80
33645;DHT22;19986;48.190;16.366;2023-05-02T08:11:26;21.40;99.60
33645;DHT22;19986;48.190;16.366;2023-05-02T08:13:51;21.40;99.40
33645;DHT22;19986;48.190;16.366;2023-05-02T08:16:18;21.40;99.60
33645;DHT22;19986;48.190;16.366;2023-05-02T08:18:44;21.50;99.40
33645;DHT22;19986;48.190;16.366;2023-05-02T08:21:11;21.40;99.40
33645;DHT22;19986;48.190;16.366;2023-05-02T08:23:39;21.50;99.50
33645;DHT22;19986;48.190;16.366;2023-05-02T08:26:06;21.60;99.50
33645;DHT22;19986;48.190;16.366;2023-05-02T08:28:32;21.80;99.40
33645;DHT22;19986;48.190;16.366;2023-05-02T08:30:57;21.80;99.10
33645;DHT22;19986;48.190;16.366;2023-05-02T08:33:23;21.70;99.20
33645;DHT22;19986;48.190;16.366;2023-05-02T08:35:49;21.80;99.10
33645;DHT22;19986;48.190;16.366;2023-05-02T08:38:15;21.80;99.30
33645;DHT22;19986;48.190;16.366;2023-05-02T08:40:41;21.80;99.60
33645;DHT22;19986;48.190;16.366;2023-05-02T08:43:07;21.90;99.80
33645;DHT22;19986;48.190;16.366;2023-05-02T08:45:39;21.90;99.80
33645;DHT22;19986;48.190;16.366;2023-05-02T08:48:07;21.80;99.80
33645;DHT22;19986;48.190;16.366;2023-05-02T08:50:42;21.90;99.70
33645;DHT22;19986;48.190;16.366;2023-05-02T08:53:11;21.90;99.20
33645;DHT22;19986;48.190;16.366;2023-05-02T08:55:40;21.80;99.30
33645;DHT22;19986;48.190;16.366;2023-05-02T08:58:08;21.80;99.50
33645;DHT22;19986;48.190;16.366;2023-05-02T09:00:39;21.90;99.30
33645;DHT22;19986;48.190;16.366;2023-05-02T09:03:35;21.80;99.20
33645;DHT22;19986;48.190;16.366;2023-05-02T09:08:32;21.80;99.40
33645;DHT22;19986;48.190;16.366;2023-05-02T09:10:58;21.60;99.30
33645;DHT22;19986;48.190;16.366;2023-05-02T09:15:59;21.40;99.60
33645;DHT22;19986;48.190;16.366;2023-05-02T09:18:30;21.30;99.70
33645;DHT22;19986;48.190;16.366;2023-05-02T09:20:58;21.10;99.90
33645;DHT22;19986;48.190;16.366;2023-05-02T09:23:44;21.00;99.90
33645;DHT22;19986;48.190;16.366;2023-05-02T09:28:46;21.00;99.90
33645;DHT22;19986;48.190;16.366;2023-05-02T09:31:15;21.10;99.90
33645;DHT22;19986;48.190;16.366;2023-05-02T09:33:41;21.20;99.90
33645;DHT22;19986;48.190;16.366;2023-05-02T09:36:10;21.50;99.90
33645;DHT22;19986;48.190;16.366;2023-05-02T09:38:37;21.60;99.30
33645;DHT22;19986;48.190;16.366;2023-05-02T09:41:04;21.60;98.90
33645;DHT22;19986;48.190;16.366;2023-05-02T09:43:30;21.50;99.10
33645;DHT22;19986;48.190;16.366;2023-05-02T09:46:05;21.60;99.40
33645;DHT22;19986;48.190;16.366;2023-05-02T09:48:56;21.70;99.40
33645;DHT22;19986;48.190;16.366;2023-05-02T09:51:24;21.70;99.20
33645;DHT22;19986;48.190;16.366;2023-05-02T09:53:51;21.70;99.70
33645;DHT22;19986;48.190;16.366;2023-05-02T09:56:17;21.80;99.50
33645;DHT22;19986;48.190;16.366;2023-05-02T09:58:43;22.00;99.50
33645;DHT22;19986;48.190;16.366;2023-05-02T10:01:16;22.20;99.20
33645;DHT22;19986;48.190;16.366;2023-05-02T10:03:46;22.20;99.10
33645;DHT22;19986;48.190;16.366;2023-05-02T10:06:12;22.20;99.20
33645;DHT22;19986;48.190;16.366;2023-05-02T10:08:41;22.30;99.20
33645;DHT22;19986;48.190;16.366;2023-05-02T10:11:11;22.40;99.00
33645;DHT22;19986;48.190;16.366;2023-05-02T10:13:39;22.60;98.80
33645;DHT22;19986;48.190;16.366;2023-05-02T10:16:07;22.60;98.50
33645;DHT22;19986;48.190;16.366;2023-05-02T10:19:08;22.50;98.60
33645;DHT22;19986;48.190;16.366;2023-05-02T10:21:33;22.30;98.80
33645;DHT22;19986;48.190;16.366;2023-05-02T10:24:01;22.20;98.90
33645;DHT22;19986;48.190;16.366;2023-05-02T10:26:46;22.10;99.20
33645;DHT22;19986;48.190;16.366;2023-05-02T10:29:12;22.00;99.40
33645;DHT22;19986;48.190;16.366;2023-05-02T10:31:39;22.10;99.30
33645;DHT22;19986;48.190;16.366;2023-05-02T10:34:08;22.20;99.40
33645;DHT22;19986;48.190;16.366;2023-05-02T10:36:35;22.10;99.40
33645;DHT22;19986;48.190;16.366;2023-05-02T10:39:02;22.10;99.60
33645;DHT22;19986;48.190;16.366;2023-05-02T10:41:30;22.00;99.80
33645;DHT22;19986;48.190;16.366;2023-05-02T10:43:58;22.00;99.90
33645;DHT22;19986;48.190;16.366;2023-05-02T10:46:35;21.90;99.90
33645;DHT22;19986;48.190;16.366;2023-05-02T10:51:28;21.40;99.90
33645;DHT22;19986;48.190;16.366;2023-05-02T10:59:27;21.40;99.90
33645;DHT22;19986;48.190;16.366;2023-05-02T11:01:54;21.50;99.90
33645;DHT22;19986;48.190;16.366;2023-05-02T11:04:20;21.50;99.90
33645;DHT22;19986;48.190;16.366;2023-05-02T11:11:54;21.50;99.90
33645;DHT22;19986;48.190;16.366;2023-05-02T11:22:31;21.70;99.90
33645;DHT22;19986;48.190;16.366;2023-05-02T11:24:57;21.60;99.90
33645;DHT22;19986;48.190;16.366;2023-05-02T11:30:07;21.40;99.90
33645;DHT22;19986;48.190;16.366;2023-05-02T11:35:16;21.10;99.90
33645;DHT22;19986;48.190;16.366;2023-05-02T11:37:45;21.40;99.90
33645;DHT22;19986;48.190;16.366;2023-05-02T11:40:17;21.70;99.90
33645;DHT22;19986;48.190;16.366;2023-05-02T11:42:45;22.50;99.90
33645;DHT22;19986;48.190;16.366;2023-05-02T11:45:11;23.10;99.90
33645;DHT22;19986;48.190;16.366;2023-05-02T11:47:37;23.50;99.10
33645;DHT22;19986;48.190;16.366;2023-05-02T11:50:04;23.60;98.90
33645;DHT22;19986;48.190;16.366;2023-05-02T11:52:35;23.60;98.80
33645;DHT22;19986;48.190;16.366;2023-05-02T11:55:01;24.10;98.40
33645;DHT22;19986;48.190;16.366;2023-05-02T11:57:27;24.60;97.40
33645;DHT22;19986;48.190;16.366;2023-05-02T11:59:55;24.50;97.40
33645;DHT22;19986;48.190;16.366;2023-05-02T12:02:38;24.50;97.60
33645;DHT22;19986;48.190;16.366;2023-05-02T12:05:06;24.60;97.40
33645;DHT22;19986;48.190;16.366;2023-05-02T12:10:02;24.50;97.20
33645;DHT22;19986;48.190;16.366;2023-05-02T12:12:28;24.20;97.30
33645;DHT22;19986;48.190;16.366;2023-05-02T12:14:54;24.30;97.70
33645;DHT22;19986;48.190;16.366;2023-05-02T12:17:20;24.30;97.40
33645;DHT22;19986;48.190;16.366;2023-05-02T12:19:48;24.20;97.50
33645;DHT22;19986;48.190;16.366;2023-05-02T12:22:14;23.70;97.70
33645;DHT22;19986;48.190;16.366;2023-05-02T12:24:41;23.50;98.20
33645;DHT22;19986;48.190;16.366;2023-05-02T12:29:42;23.00;98.50
33645;DHT22;19986;48.190;16.366;2023-05-02T12:32:29;22.70;99.10
33645;DHT22;19986;48.190;16.366;2023-05-02T12:34:57;22.50;99.30
33645;DHT22;19986;48.190;16.366;2023-05-02T12:37:24;22.30;99.60
33645;DHT22;19986;48.190;16.366;2023-05-02T12:39:50;22.40;99.60
33645;DHT22;19986;48.190;16.366;2023-05-02T12:42:19;22.50;99.70
33645;DHT22;19986;48.190;16.366;2023-05-02T12:44:48;22.80;99.50
33645;DHT22;19986;48.190;16.366;2023-05-02T12:47:17;22.80;99.20
33645;DHT22;19986;48.190;16.366;2023-05-02T12:49:57;22.70;99.30
33645;DHT22;19986;48.190;16.366;2023-05-02T12:52:49;22.60;99.30
33645;DHT22;19986;48.190;16.366;2023-05-02T12:55:20;22.60;99.20
33645;DHT22;19986;48.190;16.366;2023-05-02T12:57:47;22.70;99.20
33645;DHT22;19986;48.190;16.366;2023-05-02T13:00:16;22.80;98.90
33645;DHT22;19986;48.190;16.366;2023-05-02T13:02:43;22.90;98.80
33645;DHT22;19986;48.190;16.366;2023-05-02T13:05:19;22.90;98.60
33645;DHT22;19986;48.190;16.366;2023-05-02T13:07:45;22.70;98.60
33645;DHT22;19986;48.190;16.366;2023-05-02T13:10:11;22.70;98.60
33645;DHT22;19986;48.190;16.366;2023-05-02T13:12:38;22.70;98.70
33645;DHT22;19986;48.190;16.366;2023-05-02T13:15:05;22.50;98.50
33645;DHT22;19986;48.190;16.366;2023-05-02T13:17:32;22.30;98.50
33645;DHT22;19986;48.190;16.366;2023-05-02T13:19:57;22.10;98.90
33645;DHT22;19986;48.190;16.366;2023-05-02T13:22:24;22.00;99.10
33645;DHT22;19986;48.190;16.366;2023-05-02T13:24:50;21.90;99.30
33645;DHT22;19986;48.190;16.366;2023-05-02T13:27:16;22.00;99.30
33645;DHT22;19986;48.190;16.366;2023-05-02T13:29:48;22.10;99.30
33645;DHT22;19986;48.190;16.366;2023-05-02T13:32:14;22.00;99.30
33645;DHT22;19986;48.190;16.366;2023-05-02T13:34:39;21.80;99.50
33645;DHT22;19986;48.190;16.366;2023-05-02T13:37:05;21.80;99.70
33645;DHT22;19986;48.190;16.366;2023-05-02T13:39:31;21.80;99.80
33645;DHT22;19986;48.190;16.366;2023-05-02T13:41:58;21.60;99.90
33645;DHT22;19986;48.190;16.366;2023-05-02T13:44:23;21.40;99.90
33645;DHT22;19986;48.190;16.366;2023-05-02T13:46:52;21.20;99.90
33645;DHT22;19986;48.190;16.366;2023-05-02T13:49:18;21.00;99.90
33645;DHT22;19986;48.190;16.366;2023-05-02T13:51:44;20.80;99.90
33645;DHT22;19986;48.190;16.366;2023-05-02T13:54:10;20.80;99.90
33645;DHT22;19986;48.190;16.366;2023-05-02T13:56:36;20.80;99.90
33645;DHT22;19986;48.190;16.366;2023-05-02T13:59:02;20.80;99.90
33645;DHT22;19986;48.190;16.366;2023-05-02T14:01:27;20.60;99.90
33645;DHT22;19986;48.190;16.366;2023-05-02T14:03:53;20.50;99.90
33645;DHT22;19986;48.190;16.366;2023-05-02T14:06:19;20.50;99.90
33645;DHT22;19986;48.190;16.366;2023-05-02T14:08:45;20.40;99.90
33645;DHT22;19986;48.190;16.366;2023-05-02T14:11:11;20.30;99.90
33645;DHT22;19986;48.190;16.366;2023-05-02T14:13:37;20.30;99.90
33645;DHT22;19986;48.190;16.366;2023-05-02T14:16:03;20.30;99.90
33645;DHT22;19986;48.190;16.366;2023-05-02T14:18:29;20.30;99.90
33645;DHT22;19986;48.190;16.366;2023-05-02T14:20:54;20.10;99.90
33645;DHT22;19986;48.190;16.366;2023-05-02T14:23:25;20.00;99.90
33645;DHT22;19986;48.190;16.366;2023-05-02T14:25:53;19.90;99.90
33645;DHT22;19986;48.190;16.366;2023-05-02T14:28:19;19.80;99.90
33645;DHT22;19986;48.190;16.366;2023-05-02T14:30:47;19.70;99.90
33645;DHT22;19986;48.190;16.366;2023-05-02T14:33:14;19.70;99.90
33645;DHT22;19986;48.190;16.366;2023-05-02T14:35:40;19.80;99.90
33645;DHT22;19986;48.190;16.366;2023-05-02T14:38:06;19.90;99.90
33645;DHT22;19986;48.190;16.366;2023-05-02T14:40:32;19.80;99.90
33645;DHT22;19986;48.190;16.366;2023-05-02T14:42:58;19.80;99.90
33645;DHT22;19986;48.190;16.366;2023-05-02T14:45:25;19.80;99.90
33645;DHT22;19986;48.190;16.366;2023-05-02T14:47:51;19.80;99.90
33645;DHT22;19986;48.190;16.366;2023-05-02T14:50:17;19.80;99.90
33645;DHT22;19986;48.190;16.366;2023-05-02T14:52:43;19.90;99.90
33645;DHT22;19986;48.190;16.366;2023-05-02T14:55:12;20.00;99.90
33645;DHT22;19986;48.190;16.366;2023-05-02T14:57:38;20.10;99.90
33645;DHT22;19986;48.190;16.366;2023-05-02T15:00:04;20.20;99.90
33645;DHT22;19986;48.190;16.366;2023-05-02T15:02:34;20.20;99.90
33645;DHT22;19986;48.190;16.366;2023-05-02T15:05:01;20.20;99.90
33645;DHT22;19986;48.190;16.366;2023-05-02T15:07:27;20.20;99.90
33645;DHT22;19986;48.190;16.366;2023-05-02T15:09:53;20.10;99.90
33645;DHT22;19986;48.190;16.366;2023-05-02T15:12:19;20.10;99.90
33645;DHT22;19986;48.190;16.366;2023-05-02T15:14:45;20.10;99.90
33645;DHT22;19986;48.190;16.366;2023-05-02T15:17:11;20.10;99.90
33645;DHT22;19986;48.190;16.366;2023-05-02T15:19:37;19.90;99.90
33645;DHT22;19986;48.190;16.366;2023-05-02T15:22:03;19.80;99.90
33645;DHT22;19986;48.190;16.366;2023-05-02T15:24:29;19.80;99.90
33645;DHT22;19986;48.190;16.366;2023-05-02T15:26:55;19.80;99.90
33645;DHT22;19986;48.190;16.366;2023-05-02T15:29:21;19.90;99.90
33645;DHT22;19986;48.190;16.366;2023-05-02T15:31:47;19.70;99.90
33645;DHT22;19986;48.190;16.366;2023-05-02T15:34:13;19.70;99.90
33645;DHT22;19986;48.190;16.366;2023-05-02T15:36:40;19.70;99.90
33645;DHT22;19986;48.190;16.366;2023-05-02T15:39:08;19.80;99.90
33645;DHT22;19986;48.190;16.366;2023-05-02T15:41:35;19.70;99.90
33645;DHT22;19986;48.190;16.366;2023-05-02T15:44:01;19.60;99.90
33645;DHT22;19986;48.190;16.366;2023-05-02T15:46:28;19.60;99.90
33645;DHT22;19986;48.190;16.366;2023-05-02T15:48:53;19.60;99.90
33645;DHT22;19986;48.190;16.366;2023-05-02T15:51:19;19.50;99.90
33645;DHT22;19986;48.190;16.366;2023-05-02T15:53:45;19.40;99.90
33645;DHT22;19986;48.190;16.366;2023-05-02T15:56:14;19.30;99.90
33645;DHT22;19986;48.190;16.366;2023-05-02T15:58:41;19.20;99.90
33645;DHT22;19986;48.190;16.366;2023-05-02T16:01:07;19.10;99.90
33645;DHT22;19986;48.190;16.366;2023-05-02T16:03:33;19.00;99.90
33645;DHT22;19986;48.190;16.366;2023-05-02T16:05:59;18.90;99.90
33645;DHT22;19986;48.190;16.366;2023-05-02T16:08:26;18.90;99.90
33645;DHT22;19986;48.190;16.366;2023-05-02T16:10:52;18.80;99.90
33645;DHT22;19986;48.190;16.366;2023-05-02T16:13:18;18.80;99.90
33645;DHT22;19986;48.190;16.366;2023-05-02T16:15:44;18.80;99.90